Time;durP1;ratioP1;P1;durP2;ratioP2;P2;SDS_P1;SDS_P2;PMS_P1;PMS_P2;Temp;Humidity;BMP_temperature;BMP_pressure;BME280_temperature;BME280_humidity;BME280_pressure;Samples;Min_cycle;Max_cycle;Signal;HPM_P1;HPM_P2
2021/12/16 00:02:14;;;;;;;12.32;11.15;;;4.40;99.90;;;;;;5146048;27;20911;-57
2021/12/16 00:05:27;;;;;;;10.25;9.45;;;4.40;99.90;;;;;;5084092;27;20543;-57
2021/12/16 00:08:16;;;;;;;9.18;8.48;;;4.40;99.90;;;;;;5105486;27;20677;-58
2021/12/16 00:11:03;;;;;;;9.77;9.05;;;4.40;99.90;;;;;;5084868;27;21015;-57
2021/12/16 00:31:32;;;;;;;9.70;8.90;;;4.40;99.90;;;;;;5126383;27;21060;-57
2021/12/16 00:34:13;;;;;;;8.68;8.07;;;4.40;99.90;;;;;;5084144;28;20547;-58
2021/12/16 00:36:52;;;;;;;9.80;9.07;;;4.40;99.90;;;;;;5149463;27;20690;-57
2021/12/16 00:39:35;;;;;;;9.63;8.88;;;4.40;99.90;;;;;;5084864;27;20671;-57
2021/12/16 00:42:30;;;;;;;8.35;7.75;;;4.40;99.90;;;;;;5083419;27;20535;-57
2021/12/16 00:48:22;;;;;;;8.77;8.10;;;4.40;99.90;;;;;;5105443;27;20697;-57
2021/12/16 00:54:10;;;;;;;8.90;8.13;;;4.30;99.90;;;;;;5145546;27;20665;-58
2021/12/16 00:56:56;;;;;;;8.48;7.78;;;4.30;99.90;;;;;;5125421;27;20667;-57
2021/12/16 00:59:39;;;;;;;8.57;7.97;;;4.30;99.90;;;;;;5084780;27;21279;-58
2021/12/16 01:02:39;;;;;;;7.57;7.05;;;4.40;99.90;;;;;;5084538;28;21023;-57
2021/12/16 01:05:57;;;;;;;7.68;7.18;;;4.40;99.90;;;;;;5144953;27;20542;-56
2021/12/16 01:09:06;;;;;;;9.02;8.23;;;4.40;99.90;;;;;;5105243;27;21136;-57
2021/12/16 01:35:40;;;;;;;8.77;8.07;;;4.40;99.90;;;;;;5124143;22;20668;-57
2021/12/16 01:39:00;;;;;;;9.55;8.85;;;4.40;99.90;;;;;;5085248;28;20659;-57
2021/12/16 01:47:54;;;;;;;10.90;10.07;;;4.40;99.90;;;;;;5084396;27;21087;-56
2021/12/16 01:50:37;;;;;;;10.70;9.80;;;4.40;99.90;;;;;;5146501;27;20546;-56
2021/12/16 01:53:35;;;;;;;11.60;10.30;;;4.40;99.90;;;;;;5085215;28;20656;-56
2021/12/16 01:56:24;;;;;;;11.25;10.45;;;4.40;99.90;;;;;;5118451;27;20571;-56
2021/12/16 01:59:06;;;;;;;11.70;10.80;;;4.40;99.90;;;;;;5105178;27;21015;-57
2021/12/16 02:01:45;;;;;;;11.05;10.10;;;4.40;99.90;;;;;;5145987;27;20546;-56
2021/12/16 02:04:29;;;;;;;11.38;10.45;;;4.40;99.90;;;;;;5083749;28;20572;-57
2021/12/16 02:07:26;;;;;;;11.18;10.32;;;4.40;99.90;;;;;;5084701;28;20547;-56
2021/12/16 02:10:06;;;;;;;12.00;11.10;;;4.40;99.90;;;;;;5104936;27;20530;-56
2021/12/16 02:12:56;;;;;;;11.27;10.07;;;4.40;99.90;;;;;;5084901;28;20664;-57
2021/12/16 02:27:38;;;;;;;11.40;10.43;;;4.40;99.90;;;;;;5085023;27;20540;-57
2021/12/16 02:33:51;;;;;;;11.07;10.18;;;4.40;99.90;;;;;;5146019;27;20657;-57
2021/12/16 02:36:39;;;;;;;12.18;10.98;;;4.40;99.90;;;;;;5084072;27;20949;-56
2021/12/16 02:39:23;;;;;;;11.73;10.73;;;4.40;99.90;;;;;;5084555;27;20683;-56
2021/12/16 02:42:11;;;;;;;12.35;11.35;;;4.40;99.90;;;;;;5084785;28;20667;-56
2021/12/16 02:50:46;;;;;;;12.05;11.20;;;4.40;99.90;;;;;;5084621;27;20565;-57
2021/12/16 02:53:26;;;;;;;13.38;12.25;;;4.40;99.90;;;;;;5083920;27;20569;-57
2021/12/16 02:56:07;;;;;;;11.57;10.70;;;4.40;99.90;;;;;;5104215;27;20550;-56
2021/12/16 02:58:48;;;;;;;11.65;10.80;;;4.40;99.90;;;;;;5084601;27;20548;-56
2021/12/16 03:01:30;;;;;;;12.45;11.55;;;4.40;99.90;;;;;;5083856;28;20672;-56
2021/12/16 03:04:13;;;;;;;12.98;11.90;;;4.40;99.90;;;;;;5145943;27;20542;-56
2021/12/16 03:06:56;;;;;;;13.50;12.43;;;4.40;99.90;;;;;;5083872;27;20555;-56
2021/12/16 03:10:26;;;;;;;12.45;11.50;;;4.40;99.90;;;;;;5083499;27;20551;-56
2021/12/16 03:13:09;;;;;;;13.23;12.13;;;4.40;99.90;;;;;;5084226;27;20540;-56
2021/12/16 03:16:04;;;;;;;12.77;11.73;;;4.40;99.90;;;;;;5084126;27;20998;-56
2021/12/16 03:18:49;;;;;;;12.10;11.20;;;4.40;99.90;;;;;;5146216;27;20656;-56
2021/12/16 03:21:35;;;;;;;12.82;11.73;;;4.40;99.90;;;;;;5126183;27;20555;-56
2021/12/16 03:24:35;;;;;;;13.35;12.35;;;4.40;99.90;;;;;;5083502;27;20547;-57
2021/12/16 03:30:42;;;;;;;12.75;11.80;;;4.40;99.90;;;;;;5084835;28;21140;-56
2021/12/16 03:33:49;;;;;;;13.40;12.30;;;4.40;99.90;;;;;;5104947;27;20534;-56
2021/12/16 03:36:32;;;;;;;12.93;11.93;;;4.40;99.90;;;;;;5084076;28;21228;-56
2021/12/16 03:39:12;;;;;;;13.93;12.88;;;4.40;99.90;;;;;;5084366;27;20549;-56
2021/12/16 03:41:52;;;;;;;14.85;13.65;;;4.40;99.90;;;;;;5084535;28;20660;-56
2021/12/16 03:44:48;;;;;;;14.05;12.85;;;4.40;99.90;;;;;;5081969;28;20667;-56
2021/12/16 03:47:35;;;;;;;13.40;12.20;;;4.40;99.90;;;;;;5084430;28;20684;-56
2021/12/16 03:50:17;;;;;;;13.93;12.68;;;4.40;99.90;;;;;;5146113;27;20538;-57
2021/12/16 03:52:57;;;;;;;13.93;12.80;;;4.40;99.90;;;;;;5145867;27;20576;-57
2021/12/16 03:55:37;;;;;;;14.02;12.93;;;4.40;99.90;;;;;;5083664;27;21083;-56
2021/12/16 03:58:18;;;;;;;15.85;14.45;;;4.40;99.90;;;;;;5125538;27;20567;-56
2021/12/16 04:01:01;;;;;;;13.90;12.70;;;4.40;99.90;;;;;;5084915;27;20599;-56
2021/12/16 04:03:41;;;;;;;12.70;11.68;;;4.40;99.90;;;;;;5084480;27;20547;-57
2021/12/16 04:06:23;;;;;;;13.57;12.45;;;4.40;99.90;;;;;;5104167;27;21186;-57
2021/12/16 04:09:03;;;;;;;13.77;12.63;;;4.40;99.90;;;;;;5146618;27;20669;-56
2021/12/16 04:11:51;;;;;;;13.55;12.48;;;4.50;99.90;;;;;;5105224;27;20677;-57
2021/12/16 04:14:30;;;;;;;13.38;12.32;;;4.40;99.90;;;;;;5084136;28;21033;-56
2021/12/16 04:17:11;;;;;;;14.50;13.40;;;4.40;99.90;;;;;;5125416;27;20560;-56
2021/12/16 04:19:52;;;;;;;14.82;13.63;;;4.40;99.90;;;;;;5146471;27;20929;-56
2021/12/16 04:22:38;;;;;;;13.70;12.55;;;4.40;99.90;;;;;;5084857;28;21001;-56
2021/12/16 04:25:21;;;;;;;14.50;13.30;;;4.40;99.90;;;;;;5083693;27;20532;-56
2021/12/16 04:28:05;;;;;;;13.38;12.40;;;4.40;99.90;;;;;;5085104;27;20539;-56
2021/12/16 04:30:45;;;;;;;13.45;12.35;;;4.40;99.90;;;;;;5105704;27;20565;-56
2021/12/16 04:33:25;;;;;;;13.45;12.45;;;4.40;99.90;;;;;;5104610;27;21201;-56
2021/12/16 04:36:05;;;;;;;13.00;12.00;;;4.40;99.90;;;;;;5084456;28;20679;-56
2021/12/16 04:38:46;;;;;;;14.30;13.23;;;4.40;99.90;;;;;;5084755;28;20664;-56
2021/12/16 04:41:27;;;;;;;13.40;12.40;;;4.40;99.90;;;;;;5146680;27;21327;-56
2021/12/16 04:44:10;;;;;;;12.98;11.98;;;4.40;99.90;;;;;;5082635;27;20573;-56
2021/12/16 04:46:51;;;;;;;14.32;12.98;;;4.40;99.90;;;;;;5146705;27;20673;-57
2021/12/16 04:49:30;;;;;;;12.23;11.32;;;4.40;99.90;;;;;;5084541;27;20532;-57
2021/12/16 04:52:12;;;;;;;14.30;12.95;;;4.40;99.90;;;;;;5104286;27;21034;-56
2021/12/16 04:54:53;;;;;;;13.73;12.63;;;4.40;99.90;;;;;;5124706;27;21035;-57
2021/12/16 04:57:33;;;;;;;13.38;12.38;;;4.30;99.90;;;;;;5146404;27;20562;-56
2021/12/16 05:00:26;;;;;;;12.75;11.38;;;4.40;99.90;;;;;;5125498;27;21055;-56
2021/12/16 05:03:05;;;;;;;14.48;13.35;;;4.30;99.90;;;;;;5084634;28;20668;-56
2021/12/16 05:05:45;;;;;;;15.43;14.02;;;4.30;99.90;;;;;;5083739;27;20551;-56
2021/12/16 05:08:26;;;;;;;14.50;13.23;;;4.30;99.90;;;;;;5104897;27;20899;-57
2021/12/16 05:11:11;;;;;;;13.73;12.63;;;4.30;99.90;;;;;;5145814;27;20538;-56
2021/12/16 05:13:51;;;;;;;13.35;12.25;;;4.30;99.90;;;;;;5104674;27;21190;-56
2021/12/16 05:16:31;;;;;;;13.20;12.10;;;4.30;99.90;;;;;;5084368;27;20570;-56
2021/12/16 05:19:11;;;;;;;13.02;12.02;;;4.30;99.90;;;;;;5105045;27;20549;-56
2021/12/16 05:21:56;;;;;;;12.77;11.73;;;4.30;99.90;;;;;;5082829;27;20548;-56
2021/12/16 05:24:36;;;;;;;14.10;12.70;;;4.30;99.90;;;;;;5083961;27;20547;-56
2021/12/16 05:27:15;;;;;;;12.55;11.57;;;4.30;99.90;;;;;;5084924;28;21200;-56
2021/12/16 05:29:55;;;;;;;12.38;11.27;;;4.40;99.90;;;;;;5084788;28;20652;-56
2021/12/16 05:32:35;;;;;;;12.45;11.57;;;4.40;99.90;;;;;;5125787;27;20756;-56
2021/12/16 05:35:18;;;;;;;12.38;11.23;;;4.50;99.90;;;;;;5145492;27;20657;-56
2021/12/16 05:37:58;;;;;;;11.88;10.88;;;4.50;99.90;;;;;;5105504;27;20530;-56
2021/12/16 05:40:39;;;;;;;11.73;10.82;;;4.50;99.90;;;;;;5084724;28;20679;-57
2021/12/16 05:43:23;;;;;;;11.50;10.45;;;4.50;99.90;;;;;;5146500;27;20665;-56
2021/12/16 05:46:03;;;;;;;11.45;10.65;;;4.50;99.90;;;;;;5084015;28;20568;-56
2021/12/16 05:48:46;;;;;;;11.70;10.80;;;4.50;99.90;;;;;;5125762;27;20544;-56
2021/12/16 05:51:28;;;;;;;12.70;11.73;;;4.50;99.90;;;;;;5105449;27;21131;-56
2021/12/16 05:54:09;;;;;;;16.10;14.70;;;4.50;99.90;;;;;;5125475;27;20660;-56
2021/12/16 05:56:48;;;;;;;22.90;20.70;;;4.50;99.90;;;;;;5084917;27;20589;-56
2021/12/16 05:59:27;;;;;;;22.27;20.17;;;4.50;99.90;;;;;;5085672;27;20576;-56
2021/12/16 06:02:08;;;;;;;13.57;12.55;;;4.60;99.90;;;;;;5104570;27;20550;-56
2021/12/16 06:04:50;;;;;;;12.40;11.50;;;4.60;99.90;;;;;;5083930;27;20547;-56
2021/12/16 06:07:30;;;;;;;11.73;10.93;;;4.60;99.90;;;;;;5084459;27;20707;-56
2021/12/16 06:10:29;;;;;;;11.95;11.05;;;4.60;99.90;;;;;;5104901;27;20666;-56
2021/12/16 06:13:10;;;;;;;12.05;11.15;;;4.60;99.90;;;;;;5084566;27;20900;-56
2021/12/16 06:22:19;;;;;;;11.27;10.38;;;4.60;99.90;;;;;;5083830;27;20563;-56
2021/12/16 06:27:51;;;;;;;10.57;9.88;;;4.50;99.90;;;;;;5126163;27;21103;-56
2021/12/16 06:30:36;;;;;;;11.68;10.88;;;4.50;99.90;;;;;;5122836;27;20536;-57
2021/12/16 06:33:18;;;;;;;11.52;10.73;;;4.50;99.90;;;;;;5095901;27;20656;-56
2021/12/16 06:35:58;;;;;;;12.98;12.05;;;4.50;99.90;;;;;;5098366;27;20707;-56
2021/12/16 06:38:37;;;;;;;15.18;13.90;;;4.50;99.90;;;;;;5084418;27;21068;-57
2021/12/16 06:41:18;;;;;;;14.07;12.88;;;4.50;99.90;;;;;;5145960;27;20669;-57
2021/12/16 06:44:01;;;;;;;15.05;13.90;;;4.60;99.90;;;;;;5143525;27;20941;-56
2021/12/16 06:46:42;;;;;;;13.57;12.60;;;4.50;99.90;;;;;;5083940;28;20601;-56
2021/12/16 06:49:22;;;;;;;13.52;12.52;;;4.60;99.90;;;;;;5146012;27;21136;-56
2021/12/16 06:52:04;;;;;;;12.38;11.32;;;4.60;99.90;;;;;;5145895;27;20543;-57
2021/12/16 06:54:58;;;;;;;10.68;9.98;;;4.60;99.90;;;;;;5103340;27;20591;-56
2021/12/16 06:57:44;;;;;;;13.98;12.98;;;4.60;99.90;;;;;;5084635;27;20558;-57
2021/12/16 07:00:35;;;;;;;14.82;13.80;;;4.60;99.90;;;;;;5084547;28;20481;-56
2021/12/16 07:03:22;;;;;;;14.65;13.55;;;4.60;99.90;;;;;;5084735;28;20687;-57
2021/12/16 07:06:02;;;;;;;14.40;13.13;;;4.70;99.90;;;;;;5145719;27;20911;-56
2021/12/16 07:08:43;;;;;;;14.05;12.88;;;4.70;99.90;;;;;;5105231;27;21073;-56
2021/12/16 07:11:22;;;;;;;11.90;11.10;;;4.70;99.90;;;;;;5084857;27;21172;-56
2021/12/16 07:14:04;;;;;;;13.40;12.40;;;4.80;99.90;;;;;;5104656;27;20546;-56
2021/12/16 07:16:44;;;;;;;12.63;11.73;;;4.80;99.90;;;;;;5146095;27;21036;-56
2021/12/16 07:19:24;;;;;;;13.90;12.90;;;4.80;99.90;;;;;;5084794;27;20535;-56
2021/12/16 07:22:05;;;;;;;14.13;13.13;;;4.80;99.90;;;;;;5084809;28;20571;-56
2021/12/16 07:24:44;;;;;;;12.27;11.38;;;4.80;99.90;;;;;;5104634;27;21238;-56
2021/12/16 07:27:23;;;;;;;13.57;12.48;;;4.90;99.90;;;;;;5105158;27;20607;-56
2021/12/16 07:30:06;;;;;;;12.60;11.70;;;4.90;99.90;;;;;;5085102;28;20667;-56
2021/12/16 07:32:45;;;;;;;12.30;11.50;;;4.90;99.90;;;;;;5084933;27;20562;-55
2021/12/16 07:35:28;;;;;;;12.02;11.20;;;4.90;99.90;;;;;;5084531;27;20884;-56
2021/12/16 07:38:12;;;;;;;11.98;10.98;;;4.90;99.90;;;;;;5146467;27;20551;-56
2021/12/16 07:40:54;;;;;;;11.73;10.93;;;4.90;99.90;;;;;;5084938;27;20574;-56
2021/12/16 07:43:55;;;;;;;13.13;11.90;;;4.90;99.90;;;;;;5083372;28;21023;-55
2021/12/16 07:46:34;;;;;;;12.68;11.57;;;4.90;99.90;;;;;;5084405;27;20552;-56
2021/12/16 07:49:17;;;;;;;11.00;10.30;;;4.90;99.90;;;;;;5085344;27;20547;-56
2021/12/16 07:51:59;;;;;;;11.05;10.25;;;4.90;99.90;;;;;;5125782;27;20535;-56
2021/12/16 07:54:39;;;;;;;12.20;11.38;;;4.90;99.90;;;;;;5105167;27;21141;-56
2021/12/16 07:57:19;;;;;;;10.63;9.82;;;4.90;99.90;;;;;;5085422;28;21031;-55
2021/12/16 07:59:58;;;;;;;11.70;10.90;;;4.90;99.90;;;;;;5085094;28;20668;-56
2021/12/16 08:02:38;;;;;;;11.07;10.27;;;4.90;99.90;;;;;;5085249;27;20546;-56
2021/12/16 08:05:22;;;;;;;12.60;11.45;;;4.90;99.90;;;;;;5125678;27;20532;-57
2021/12/16 08:08:01;;;;;;;12.20;11.30;;;4.90;99.90;;;;;;5126521;27;20652;-56
2021/12/16 08:10:41;;;;;;;12.95;12.05;;;5.00;99.90;;;;;;5105062;27;20530;-56
2021/12/16 08:13:21;;;;;;;12.00;11.20;;;5.00;99.90;;;;;;5146206;27;21082;-56
2021/12/16 08:16:01;;;;;;;10.90;10.02;;;5.10;99.90;;;;;;5145670;27;20554;-56
2021/12/16 08:18:40;;;;;;;11.90;11.00;;;5.10;99.90;;;;;;5085094;28;20659;-56
2021/12/16 08:21:21;;;;;;;11.63;10.73;;;5.10;99.90;;;;;;5125684;27;20679;-56
2021/12/16 08:24:04;;;;;;;11.90;11.02;;;5.20;99.90;;;;;;5125193;27;20552;-56
2021/12/16 08:26:44;;;;;;;12.68;11.77;;;5.20;99.90;;;;;;5084584;27;20547;-56
2021/12/16 08:29:24;;;;;;;13.27;12.27;;;5.30;99.90;;;;;;5125222;27;20536;-56
2021/12/16 08:32:05;;;;;;;13.52;12.55;;;5.30;99.90;;;;;;5125473;27;20544;-56
2021/12/16 08:34:46;;;;;;;13.82;12.80;;;5.30;99.90;;;;;;5145900;27;20650;-56
2021/12/16 08:37:25;;;;;;;13.32;12.23;;;5.30;99.90;;;;;;5085086;28;20672;-55
2021/12/16 08:40:09;;;;;;;12.82;11.80;;;5.30;99.90;;;;;;5146518;27;20667;-55
2021/12/16 08:42:49;;;;;;;12.48;11.57;;;5.30;99.90;;;;;;5105089;27;20534;-56
2021/12/16 08:45:31;;;;;;;13.73;12.43;;;5.30;99.90;;;;;;5102810;27;20689;-56
2021/12/16 08:48:10;;;;;;;11.90;11.10;;;5.30;99.90;;;;;;5104980;27;20895;-56
2021/12/16 08:50:51;;;;;;;13.25;12.35;;;5.30;99.90;;;;;;5084522;27;20543;-55
2021/12/16 08:53:31;;;;;;;13.60;12.50;;;5.40;99.90;;;;;;5084523;27;20612;-55
2021/12/16 08:56:12;;;;;;;13.50;12.57;;;5.40;99.90;;;;;;5145970;27;21198;-55
2021/12/16 08:58:52;;;;;;;14.00;13.00;;;5.40;99.90;;;;;;5085197;27;20539;-56
2021/12/16 09:01:35;;;;;;;13.88;12.80;;;5.50;99.90;;;;;;5126021;27;20936;-55
2021/12/16 09:04:16;;;;;;;15.30;14.13;;;5.60;99.90;;;;;;5145877;27;20916;-55
2021/12/16 09:07:00;;;;;;;15.32;14.15;;;5.60;99.90;;;;;;5105855;27;20675;-54
2021/12/16 09:09:40;;;;;;;16.13;14.65;;;5.60;99.90;;;;;;5085166;28;20662;-55
2021/12/16 09:12:48;;;;;;;16.88;15.57;;;5.60;99.90;;;;;;5083585;27;20554;-55
2021/12/16 09:15:30;;;;;;;15.43;14.13;;;5.70;99.90;;;;;;5145334;27;20535;-55
2021/12/16 09:18:11;;;;;;;13.23;12.23;;;5.80;99.90;;;;;;5085268;27;21008;-55
2021/12/16 09:20:52;;;;;;;14.88;13.70;;;5.80;99.90;;;;;;5105256;27;20564;-55
2021/12/16 09:23:32;;;;;;;15.00;13.80;;;5.90;99.90;;;;;;5084631;28;20679;-55
2021/12/16 09:26:13;;;;;;;15.35;14.15;;;6.00;99.90;;;;;;5084457;27;20555;-55
2021/12/16 09:28:52;;;;;;;13.23;12.23;;;6.10;99.90;;;;;;5146993;27;20667;-56
2021/12/16 09:31:32;;;;;;;15.27;14.10;;;6.30;99.90;;;;;;5146506;27;20966;-55
2021/12/16 09:34:11;;;;;;;15.30;14.10;;;6.60;99.90;;;;;;5105546;27;20538;-55
2021/12/16 09:36:51;;;;;;;15.38;14.07;;;6.70;99.90;;;;;;5085422;28;20559;-55
2021/12/16 09:39:31;;;;;;;15.52;14.23;;;6.80;99.90;;;;;;5125896;27;20552;-55
2021/12/16 09:42:11;;;;;;;14.90;13.60;;;6.90;99.90;;;;;;5146519;27;20551;-55
2021/12/16 09:44:51;;;;;;;15.68;14.38;;;7.00;99.90;;;;;;5082218;28;20957;-55
2021/12/16 09:47:30;;;;;;;15.90;14.40;;;7.20;99.90;;;;;;5085009;28;21212;-55
2021/12/16 09:50:14;;;;;;;14.43;13.23;;;7.50;99.90;;;;;;5084778;27;21068;-55
2021/12/16 09:52:54;;;;;;;14.27;13.07;;;7.60;99.90;;;;;;5146380;27;21217;-55
2021/12/16 09:55:34;;;;;;;13.45;12.30;;;7.60;99.90;;;;;;5145213;27;20545;-55
2021/12/16 09:58:13;;;;;;;14.60;13.32;;;7.50;99.90;;;;;;5125425;27;20552;-55
2021/12/16 10:00:54;;;;;;;14.57;13.25;;;7.30;99.90;;;;;;5125469;27;20548;-55
2021/12/16 10:03:34;;;;;;;15.65;14.00;;;7.20;99.90;;;;;;5124961;27;20544;-56
2021/12/16 10:06:16;;;;;;;14.77;13.48;;;7.10;99.90;;;;;;5084132;27;20548;-55
2021/12/16 10:08:55;;;;;;;13.48;12.38;;;7.00;99.90;;;;;;5084687;27;20580;-55
2021/12/16 10:11:37;;;;;;;14.63;13.43;;;6.90;99.90;;;;;;5084884;28;20543;-55
2021/12/16 10:14:33;;;;;;;14.25;13.15;;;6.80;99.90;;;;;;5104695;27;20681;-56
2021/12/16 10:17:24;;;;;;;13.73;12.40;;;6.70;99.90;;;;;;5084826;28;20667;-55
2021/12/16 10:20:10;;;;;;;17.33;15.93;;;6.70;99.90;;;;;;5085014;28;20387;-56
2021/12/16 10:22:51;;;;;;;26.02;23.50;;;6.70;99.90;;;;;;5085809;27;20470;-55
2021/12/16 10:25:35;;;;;;;15.82;14.23;;;6.70;99.90;;;;;;5148571;27;20891;-55
2021/12/16 10:28:17;;;;;;;14.77;13.50;;;7.00;99.90;;;;;;5106693;27;20526;-56
2021/12/16 10:31:02;;;;;;;14.13;12.82;;;7.30;99.90;;;;;;5085741;27;20589;-55
2021/12/16 10:33:44;;;;;;;12.10;11.20;;;7.60;99.90;;;;;;5106698;27;20538;-55
2021/12/16 10:36:26;;;;;;;12.13;11.13;;;7.80;99.90;;;;;;5106154;27;20682;-55
2021/12/16 10:39:09;;;;;;;12.50;11.30;;;7.80;99.90;;;;;;5106521;27;20595;-55
2021/12/16 10:41:52;;;;;;;11.60;10.45;;;7.70;99.90;;;;;;5147725;27;20531;-56
2021/12/16 10:44:36;;;;;;;13.10;12.10;;;7.60;99.90;;;;;;5085306;27;20553;-55
2021/12/16 10:47:15;;;;;;;10.43;9.63;;;7.60;99.90;;;;;;5147661;27;20546;-56
2021/12/16 10:49:55;;;;;;;13.48;12.35;;;7.70;99.90;;;;;;5127014;27;20544;-56
2021/12/16 10:52:40;;;;;;;11.65;10.65;;;7.60;99.90;;;;;;5086393;28;20691;-55
2021/12/16 10:55:20;;;;;;;12.13;10.93;;;7.80;99.90;;;;;;5085565;27;21075;-55
2021/12/16 10:57:59;;;;;;;12.48;11.48;;;8.00;99.90;;;;;;5085800;27;20541;-56
2021/12/16 11:00:39;;;;;;;12.95;11.90;;;8.10;99.90;;;;;;5086287;27;20557;-55
2021/12/16 11:03:43;;;;;;;11.50;10.60;;;8.20;99.90;;;;;;5086199;27;21081;-55
2021/12/16 11:06:31;;;;;;;12.18;11.27;;;8.20;99.90;;;;;;5085493;27;20553;-56
2021/12/16 11:09:39;;;;;;;11.63;10.73;;;8.20;99.90;;;;;;5085861;27;20660;-55
2021/12/16 11:12:26;;;;;;;11.75;10.80;;;8.10;99.90;;;;;;5082483;27;1288387;-56
2021/12/16 11:15:19;;;;;;;11.68;10.68;;;8.20;99.90;;;;;;5146952;27;20673;-55
2021/12/16 11:18:02;;;;;;;12.23;11.10;;;8.20;99.90;;;;;;5086042;28;20658;-56
2021/12/16 11:20:44;;;;;;;10.80;10.00;;;8.10;99.90;;;;;;5086277;28;20676;-55
2021/12/16 11:23:27;;;;;;;10.98;10.18;;;8.10;99.90;;;;;;5085526;27;20565;-56
2021/12/16 11:26:10;;;;;;;11.05;10.15;;;8.00;99.90;;;;;;5147476;27;20558;-55
2021/12/16 11:28:52;;;;;;;11.73;10.80;;;7.90;99.90;;;;;;5086301;27;20531;-55
2021/12/16 11:31:34;;;;;;;13.02;12.13;;;7.90;99.90;;;;;;5085044;27;20461;-55
2021/12/16 11:34:13;;;;;;;11.88;10.85;;;7.90;99.90;;;;;;5141471;27;20659;-56
2021/12/16 11:36:54;;;;;;;11.02;10.23;;;8.00;99.90;;;;;;5126241;27;20571;-55
2021/12/16 11:39:33;;;;;;;11.43;10.52;;;8.00;99.90;;;;;;5080404;27;20583;-55
2021/12/16 11:42:13;;;;;;;9.68;8.98;;;8.20;99.90;;;;;;5082738;28;21110;-55
2021/12/16 11:44:53;;;;;;;10.13;9.32;;;8.30;99.90;;;;;;5082647;28;20702;-55
2021/12/16 11:47:32;;;;;;;9.10;8.40;;;8.30;99.90;;;;;;5063896;27;20557;-55
2021/12/16 11:50:12;;;;;;;9.70;8.88;;;8.20;99.90;;;;;;5126159;27;20548;-55
2021/12/16 11:52:54;;;;;;;10.40;9.55;;;8.20;99.90;;;;;;5085272;27;20668;-55
2021/12/16 11:55:37;;;;;;;9.30;8.60;;;8.00;99.90;;;;;;5083211;28;20543;-56
2021/12/16 11:58:16;;;;;;;9.82;9.02;;;8.00;99.90;;;;;;5085200;27;20553;-56
2021/12/16 12:00:58;;;;;;;9.88;9.15;;;8.00;99.90;;;;;;5085021;28;20664;-55
2021/12/16 12:03:38;;;;;;;10.65;9.75;;;8.20;99.90;;;;;;5104457;27;20545;-56
2021/12/16 12:06:26;;;;;;;9.90;9.20;;;8.20;99.90;;;;;;5079150;27;20569;-56
2021/12/16 12:09:08;;;;;;;10.10;9.40;;;8.00;99.90;;;;;;5084002;28;20676;-56
2021/12/16 12:11:48;;;;;;;10.05;9.27;;;7.90;99.90;;;;;;5084009;28;20671;-55
2021/12/16 12:14:33;;;;;;;11.02;10.15;;;7.80;99.90;;;;;;5103951;27;20662;-56
2021/12/16 12:17:19;;;;;;;10.75;10.00;;;7.80;99.90;;;;;;5088737;27;20683;-56
2021/12/16 12:19:59;;;;;;;11.25;10.40;;;7.70;99.90;;;;;;5147231;27;20547;-56
2021/12/16 12:22:39;;;;;;;10.63;9.63;;;7.60;99.90;;;;;;5085104;28;20549;-56
2021/12/16 12:25:20;;;;;;;9.88;9.10;;;7.60;99.90;;;;;;5138213;27;20619;-56
2021/12/16 12:27:59;;;;;;;10.68;9.88;;;7.70;99.90;;;;;;5140911;27;20673;-56
2021/12/16 12:30:38;;;;;;;9.82;9.07;;;7.70;99.90;;;;;;5145857;27;20654;-56
2021/12/16 12:33:18;;;;;;;10.65;9.85;;;7.60;99.90;;;;;;5104811;27;20550;-56
2021/12/16 12:35:58;;;;;;;9.52;8.82;;;7.50;99.90;;;;;;5070143;27;20561;-56
2021/12/16 12:38:38;;;;;;;10.93;9.93;;;7.50;99.90;;;;;;5105101;27;21067;-56
2021/12/16 12:41:18;;;;;;;10.20;9.40;;;7.50;99.90;;;;;;5085286;27;20901;-56
2021/12/16 12:43:58;;;;;;;9.70;8.90;;;7.40;99.90;;;;;;5084892;28;20672;-56
2021/12/16 12:46:39;;;;;;;9.60;8.73;;;7.50;99.90;;;;;;5126319;27;20552;-55
2021/12/16 12:49:25;;;;;;;9.77;9.00;;;7.50;99.90;;;;;;5105244;27;20561;-55
2021/12/16 12:52:10;;;;;;;10.95;10.05;;;7.70;99.90;;;;;;5084787;28;20549;-56
2021/12/16 12:55:01;;;;;;;10.32;9.43;;;8.10;99.90;;;;;;5136639;27;21208;-56
2021/12/16 12:57:42;;;;;;;9.77;9.07;;;8.30;99.90;;;;;;5074273;28;21166;-56
2021/12/16 13:00:29;;;;;;;10.27;9.38;;;8.30;99.90;;;;;;5134750;27;20672;-56
2021/12/16 13:03:12;;;;;;;10.50;9.63;;;8.10;99.90;;;;;;5120488;27;20568;-55
2021/12/16 13:05:57;;;;;;;10.02;9.23;;;8.00;99.90;;;;;;5125313;27;20551;-55
2021/12/16 13:08:40;;;;;;;9.30;8.60;;;7.80;99.90;;;;;;5124960;27;20779;-56
2021/12/16 13:11:26;;;;;;;10.63;9.75;;;7.70;99.90;;;;;;5082253;27;20569;-56
2021/12/16 13:14:15;;;;;;;9.15;8.45;;;7.50;99.90;;;;;;5137189;27;21249;-56
2021/12/16 13:17:18;;;;;;;11.00;9.98;;;7.40;99.90;;;;;;5071504;28;20678;-55
2021/12/16 13:29:11;;;;;;;10.93;10.02;;;7.40;99.90;;;;;;5147336;27;20666;-55
2021/12/16 13:32:07;;;;;;;11.15;10.35;;;7.50;99.90;;;;;;5106350;27;20530;-55
2021/12/16 13:34:56;;;;;;;11.05;10.05;;;7.40;99.90;;;;;;5085963;27;20543;-53
2021/12/16 13:37:39;;;;;;;10.88;9.98;;;7.40;99.90;;;;;;5085677;27;20553;-56
2021/12/16 13:40:22;;;;;;;10.63;9.65;;;7.30;99.90;;;;;;5085518;28;20656;-56
2021/12/16 13:43:05;;;;;;;11.10;10.10;;;7.20;99.90;;;;;;5147548;27;20534;-56
2021/12/16 13:46:03;;;;;;;11.48;10.48;;;7.10;99.90;;;;;;5085662;27;20547;-55
2021/12/16 13:48:54;;;;;;;11.95;11.05;;;7.10;99.90;;;;;;5084787;28;20527;-55
2021/12/16 14:03:50;;;;;;;11.80;10.82;;;6.80;99.90;;;;;;5082993;28;21032;-56
2021/12/16 14:06:50;;;;;;;10.68;9.90;;;6.70;99.90;;;;;;5126088;27;20560;-56
2021/12/16 14:09:35;;;;;;;11.50;10.52;;;6.60;99.90;;;;;;5084262;27;21145;-56
2021/12/16 14:15:19;;;;;;;10.45;9.65;;;6.50;99.90;;;;;;5145719;27;20673;-56
2021/12/16 14:18:07;;;;;;;11.77;10.77;;;6.40;99.90;;;;;;5085459;28;20671;-56
2021/12/16 14:23:55;;;;;;;11.52;10.63;;;6.40;99.90;;;;;;5085349;28;21034;-56
2021/12/16 14:26:41;;;;;;;11.68;10.68;;;6.40;99.90;;;;;;5124789;27;20568;-55
2021/12/16 14:35:43;;;;;;;11.57;10.48;;;6.30;99.90;;;;;;5085441;28;20667;-55
2021/12/16 14:38:50;;;;;;;11.45;10.55;;;6.30;99.90;;;;;;5125646;27;20549;-56
2021/12/16 14:41:48;;;;;;;11.70;10.57;;;6.30;99.90;;;;;;5107690;27;20553;-56
2021/12/16 14:50:41;;;;;;;15.75;14.35;;;6.30;99.90;;;;;;5084760;27;20535;-56
2021/12/16 14:53:26;;;;;;;14.77;13.43;;;6.20;99.90;;;;;;5146987;27;21017;-56
2021/12/16 14:56:09;;;;;;;16.70;15.20;;;6.20;99.90;;;;;;5125238;27;20552;-56
2021/12/16 14:58:52;;;;;;;13.27;12.25;;;6.20;99.90;;;;;;5085605;28;20840;-55
2021/12/16 15:01:36;;;;;;;15.07;13.68;;;6.20;99.90;;;;;;5086597;27;21005;-55
2021/12/16 15:04:22;;;;;;;16.38;14.70;;;6.20;99.90;;;;;;5086032;28;20660;-54
2021/12/16 15:07:07;;;;;;;15.85;14.52;;;6.10;99.90;;;;;;5085507;28;20675;-55
2021/12/16 15:09:47;;;;;;;17.88;16.17;;;6.20;99.90;;;;;;5147337;27;20669;-55
2021/12/16 15:12:36;;;;;;;13.50;12.50;;;6.10;99.90;;;;;;5085955;27;20539;-55
2021/12/16 15:15:23;;;;;;;14.63;13.43;;;6.10;99.90;;;;;;5146649;27;20534;-55
2021/12/16 15:35:56;;;;;;;15.25;13.77;;;6.10;99.90;;;;;;5106069;27;20566;-55
2021/12/16 15:38:59;;;;;;;14.02;12.82;;;6.10;99.90;;;;;;5086378;28;20664;-56
2021/12/16 15:44:36;;;;;;;15.88;14.57;;;6.00;99.90;;;;;;5086006;27;20535;-54
2021/12/16 15:47:16;;;;;;;14.75;13.30;;;6.00;99.90;;;;;;5106455;27;21202;-55
2021/12/16 15:49:57;;;;;;;13.55;12.35;;;6.00;99.90;;;;;;5126590;27;21068;-55
2021/12/16 15:52:42;;;;;;;14.63;13.23;;;6.00;99.90;;;;;;5086277;27;20577;-55
2021/12/16 15:55:29;;;;;;;13.20;12.15;;;6.00;99.90;;;;;;5082226;27;20898;-55
2021/12/16 15:58:12;;;;;;;14.90;13.50;;;5.90;99.90;;;;;;5147304;27;20944;-55
2021/12/16 16:00:56;;;;;;;15.40;14.05;;;5.90;99.90;;;;;;5085642;27;20569;-55
2021/12/16 16:03:37;;;;;;;14.80;13.38;;;5.90;99.90;;;;;;5084936;28;20660;-55
2021/12/16 16:06:20;;;;;;;17.00;15.48;;;5.90;99.90;;;;;;5084789;28;20687;-55
2021/12/16 16:09:06;;;;;;;14.50;13.18;;;5.90;99.90;;;;;;5105967;27;20542;-55
2021/12/16 16:11:47;;;;;;;13.43;12.30;;;5.90;99.90;;;;;;5100605;27;21237;-55
2021/12/16 16:14:28;;;;;;;15.00;13.73;;;5.90;99.90;;;;;;5084549;28;20760;-55
2021/12/16 16:17:14;;;;;;;14.23;13.10;;;5.90;99.90;;;;;;5090276;27;20563;-55
2021/12/16 16:19:58;;;;;;;16.00;14.75;;;5.90;99.90;;;;;;5084168;28;20679;-55
2021/12/16 16:22:37;;;;;;;19.23;16.65;;;5.90;99.90;;;;;;5125504;27;20537;-55
2021/12/16 16:25:18;;;;;;;15.43;14.20;;;5.90;99.90;;;;;;5105250;27;20567;-54
2021/12/16 16:28:02;;;;;;;15.10;13.63;;;5.90;99.90;;;;;;5085264;28;20664;-55
2021/12/16 16:30:43;;;;;;;14.73;13.40;;;5.80;99.90;;;;;;5105558;27;20563;-55
2021/12/16 16:33:25;;;;;;;14.18;13.02;;;5.80;99.90;;;;;;5082505;28;21024;-55
2021/12/16 16:36:08;;;;;;;15.40;14.10;;;5.80;99.90;;;;;;5151945;27;20679;-56